sensor_id;sensor_type;location;lat;lon;timestamp;pressure;altitude;pressure_sealevel;temperature;humidity
72961;BME280;61141;46.204;19.774;2023-04-27T00:00:53;100531.69;;;5.52;68.59
72961;BME280;61141;46.204;19.774;2023-04-27T00:03:56;100538.09;;;5.48;68.36
72961;BME280;61141;46.204;19.774;2023-04-27T00:07:03;100544.78;;;5.29;66.00
72961;BME280;61141;46.204;19.774;2023-04-27T00:10:07;100543.13;;;5.37;67.08
72961;BME280;61141;46.204;19.774;2023-04-27T00:13:10;100546.53;;;5.25;68.38
72961;BME280;61141;46.204;19.774;2023-04-27T00:16:13;100539.25;;;5.17;70.86
72961;BME280;61141;46.204;19.774;2023-04-27T00:19:16;100541.31;;;5.20;72.55
72961;BME280;61141;46.204;19.774;2023-04-27T00:22:19;100543.47;;;5.06;72.47
72961;BME280;61141;46.204;19.774;2023-04-27T00:25:22;100549.22;;;5.05;72.57
72961;BME280;61141;46.204;19.774;2023-04-27T00:28:25;100551.34;;;4.99;72.43
72961;BME280;61141;46.204;19.774;2023-04-27T00:31:28;100543.31;;;5.03;72.51
72961;BME280;61141;46.204;19.774;2023-04-27T00:34:31;100538.59;;;4.91;72.99
72961;BME280;61141;46.204;19.774;2023-04-27T00:37:34;100548.97;;;4.89;72.11
72961;BME280;61141;46.204;19.774;2023-04-27T00:40:38;100542.37;;;4.99;72.17
72961;BME280;61141;46.204;19.774;2023-04-27T00:43:44;100544.25;;;5.07;71.86
72961;BME280;61141;46.204;19.774;2023-04-27T00:46:48;100543.41;;;5.15;70.86
72961;BME280;61141;46.204;19.774;2023-04-27T00:49:50;100551.12;;;5.33;70.14
72961;BME280;61141;46.204;19.774;2023-04-27T00:52:54;100537.34;;;5.39;70.70
72961;BME280;61141;46.204;19.774;2023-04-27T00:55:58;100546.28;;;5.18;67.93
72961;BME280;61141;46.204;19.774;2023-04-27T00:59:01;100542.66;;;5.06;67.01
72961;BME280;61141;46.204;19.774;2023-04-27T01:02:04;100539.75;;;4.82;67.08
72961;BME280;61141;46.204;19.774;2023-04-27T01:05:08;100550.81;;;5.06;68.44
72961;BME280;61141;46.204;19.774;2023-04-27T01:08:11;100559.06;;;5.18;68.91
72961;BME280;61141;46.204;19.774;2023-04-27T01:11:14;100559.47;;;5.28;69.58
72961;BME280;61141;46.204;19.774;2023-04-27T01:14:17;100554.38;;;5.27;68.61
72961;BME280;61141;46.204;19.774;2023-04-27T01:17:20;100557.59;;;5.20;68.37
72961;BME280;61141;46.204;19.774;2023-04-27T01:20:23;100561.97;;;5.13;67.51
72961;BME280;61141;46.204;19.774;2023-04-27T01:23:26;100561.00;;;5.09;67.47
72961;BME280;61141;46.204;19.774;2023-04-27T01:26:29;100577.91;;;5.14;71.30
72961;BME280;61141;46.204;19.774;2023-04-27T01:29:32;100580.75;;;5.26;69.87
72961;BME280;61141;46.204;19.774;2023-04-27T01:32:36;100581.00;;;5.04;69.69
72961;BME280;61141;46.204;19.774;2023-04-27T01:35:40;100580.09;;;4.92;68.91
72961;BME280;61141;46.204;19.774;2023-04-27T01:38:43;100584.12;;;4.86;69.04
72961;BME280;61141;46.204;19.774;2023-04-27T01:41:47;100587.97;;;4.76;69.71
72961;BME280;61141;46.204;19.774;2023-04-27T01:44:50;100588.34;;;4.66;70.92
72961;BME280;61141;46.204;19.774;2023-04-27T01:47:53;100585.31;;;4.59;70.00
72961;BME280;61141;46.204;19.774;2023-04-27T01:50:55;100584.84;;;4.48;69.63
72961;BME280;61141;46.204;19.774;2023-04-27T01:53:59;100584.56;;;4.41;69.77
72961;BME280;61141;46.204;19.774;2023-04-27T01:57:02;100590.47;;;4.43;70.91
72961;BME280;61141;46.204;19.774;2023-04-27T02:00:05;100601.78;;;4.45;73.98
72961;BME280;61141;46.204;19.774;2023-04-27T02:03:21;100601.72;;;4.71;73.72
72961;BME280;61141;46.204;19.774;2023-04-27T02:06:24;100614.62;;;4.83;72.49
72961;BME280;61141;46.204;19.774;2023-04-27T02:09:27;100620.94;;;4.95;71.23
72961;BME280;61141;46.204;19.774;2023-04-27T02:12:30;100617.19;;;4.79;70.64
72961;BME280;61141;46.204;19.774;2023-04-27T02:15:34;100616.41;;;4.70;70.55
72961;BME280;61141;46.204;19.774;2023-04-27T02:18:37;100604.62;;;4.57;71.78
72961;BME280;61141;46.204;19.774;2023-04-27T02:21:40;100618.12;;;4.83;72.23
72961;BME280;61141;46.204;19.774;2023-04-27T02:24:43;100622.44;;;4.84;70.86
72961;BME280;61141;46.204;19.774;2023-04-27T02:27:45;100622.00;;;4.65;70.81
72961;BME280;61141;46.204;19.774;2023-04-27T02:30:49;100619.00;;;4.58;71.25
72961;BME280;61141;46.204;19.774;2023-04-27T02:33:52;100615.81;;;4.47;70.15
72961;BME280;61141;46.204;19.774;2023-04-27T02:36:55;100614.88;;;4.26;70.80
72961;BME280;61141;46.204;19.774;2023-04-27T02:39:59;100608.62;;;4.43;72.32
72961;BME280;61141;46.204;19.774;2023-04-27T02:43:03;100616.09;;;4.63;72.64
72961;BME280;61141;46.204;19.774;2023-04-27T02:46:06;100601.28;;;4.52;71.05
72961;BME280;61141;46.204;19.774;2023-04-27T02:49:09;100615.66;;;4.52;70.81
72961;BME280;61141;46.204;19.774;2023-04-27T02:52:12;100626.13;;;4.71;72.37
72961;BME280;61141;46.204;19.774;2023-04-27T02:55:15;100630.94;;;4.57;70.04
72961;BME280;61141;46.204;19.774;2023-04-27T02:58:19;100627.00;;;4.29;70.55
72961;BME280;61141;46.204;19.774;2023-04-27T03:01:22;100628.06;;;4.62;73.12
72961;BME280;61141;46.204;19.774;2023-04-27T03:04:25;100632.22;;;4.51;72.01
72961;BME280;61141;46.204;19.774;2023-04-27T03:07:30;100635.12;;;4.29;71.35
72961;BME280;61141;46.204;19.774;2023-04-27T03:10:33;100633.56;;;4.28;70.75
72961;BME280;61141;46.204;19.774;2023-04-27T03:13:37;100628.75;;;4.25;71.25
72961;BME280;61141;46.204;19.774;2023-04-27T03:16:43;100630.03;;;4.19;71.10
72961;BME280;61141;46.204;19.774;2023-04-27T03:19:47;100627.50;;;4.13;71.62
72961;BME280;61141;46.204;19.774;2023-04-27T03:22:53;100633.53;;;4.10;72.09
72961;BME280;61141;46.204;19.774;2023-04-27T03:25:56;100634.97;;;4.34;72.96
72961;BME280;61141;46.204;19.774;2023-04-27T03:28:59;100636.09;;;4.33;71.98
72961;BME280;61141;46.204;19.774;2023-04-27T03:32:03;100634.50;;;4.23;72.05
72961;BME280;61141;46.204;19.774;2023-04-27T03:35:06;100639.59;;;4.25;72.68
72961;BME280;61141;46.204;19.774;2023-04-27T03:38:09;100650.59;;;4.28;74.73
72961;BME280;61141;46.204;19.774;2023-04-27T03:41:12;100652.84;;;4.35;75.02
72961;BME280;61141;46.204;19.774;2023-04-27T03:44:15;100654.75;;;4.26;73.87
72961;BME280;61141;46.204;19.774;2023-04-27T03:47:18;100646.94;;;4.15;74.03
72961;BME280;61141;46.204;19.774;2023-04-27T03:50:21;100655.88;;;4.25;75.09
72961;BME280;61141;46.204;19.774;2023-04-27T03:53:24;100659.69;;;4.24;73.89
72961;BME280;61141;46.204;19.774;2023-04-27T03:56:27;100664.66;;;4.22;74.51
72961;BME280;61141;46.204;19.774;2023-04-27T03:59:30;100670.34;;;4.11;75.10
72961;BME280;61141;46.204;19.774;2023-04-27T04:02:33;100675.66;;;4.17;73.25
72961;BME280;61141;46.204;19.774;2023-04-27T04:05:37;100674.53;;;4.35;72.49
72961;BME280;61141;46.204;19.774;2023-04-27T04:08:40;100664.16;;;4.28;71.18
72961;BME280;61141;46.204;19.774;2023-04-27T04:11:43;100666.38;;;4.26;71.53
72961;BME280;61141;46.204;19.774;2023-04-27T04:14:46;100665.75;;;4.29;71.68
72961;BME280;61141;46.204;19.774;2023-04-27T04:17:50;100681.56;;;4.44;73.50
72961;BME280;61141;46.204;19.774;2023-04-27T04:20:54;100679.94;;;4.35;74.35
72961;BME280;61141;46.204;19.774;2023-04-27T04:23:57;100691.25;;;4.37;72.05
72961;BME280;61141;46.204;19.774;2023-04-27T04:26:59;100697.00;;;4.69;72.70
72961;BME280;61141;46.204;19.774;2023-04-27T04:30:04;100689.81;;;4.73;74.44
72961;BME280;61141;46.204;19.774;2023-04-27T04:33:08;100699.66;;;4.95;76.47
72961;BME280;61141;46.204;19.774;2023-04-27T04:36:15;100701.47;;;4.74;74.29
72961;BME280;61141;46.204;19.774;2023-04-27T04:39:18;100710.88;;;4.85;73.13
72961;BME280;61141;46.204;19.774;2023-04-27T04:42:22;100718.63;;;5.12;72.66
72961;BME280;61141;46.204;19.774;2023-04-27T04:45:25;100718.00;;;5.15;70.95
72961;BME280;61141;46.204;19.774;2023-04-27T04:48:28;100711.34;;;5.42;70.77
72961;BME280;61141;46.204;19.774;2023-04-27T04:51:31;100724.38;;;5.66;70.26
72961;BME280;61141;46.204;19.774;2023-04-27T04:54:35;100728.59;;;5.46;69.22
72961;BME280;61141;46.204;19.774;2023-04-27T04:57:38;100734.03;;;5.46;69.31
72961;BME280;61141;46.204;19.774;2023-04-27T05:00:41;100740.97;;;5.64;70.55
72961;BME280;61141;46.204;19.774;2023-04-27T05:03:44;100736.06;;;5.96;68.48
72961;BME280;61141;46.204;19.774;2023-04-27T05:06:48;100730.44;;;5.63;68.89
72961;BME280;61141;46.204;19.774;2023-04-27T05:09:51;100741.75;;;5.73;68.40
72961;BME280;61141;46.204;19.774;2023-04-27T05:12:54;100737.59;;;6.05;68.35
72961;BME280;61141;46.204;19.774;2023-04-27T05:15:57;100739.97;;;6.15;67.50
72961;BME280;61141;46.204;19.774;2023-04-27T05:19:00;100747.66;;;6.55;67.84
72961;BME280;61141;46.204;19.774;2023-04-27T05:22:02;100755.37;;;7.06;66.02
72961;BME280;61141;46.204;19.774;2023-04-27T05:25:06;100757.44;;;7.09;65.85
72961;BME280;61141;46.204;19.774;2023-04-27T05:28:09;100755.28;;;7.72;64.68
72961;BME280;61141;46.204;19.774;2023-04-27T05:31:12;100760.62;;;8.28;62.26
72961;BME280;61141;46.204;19.774;2023-04-27T05:34:15;100759.59;;;8.21;61.58
72961;BME280;61141;46.204;19.774;2023-04-27T05:37:19;100771.53;;;8.41;61.30
72961;BME280;61141;46.204;19.774;2023-04-27T05:40:22;100757.12;;;8.28;62.71
72961;BME280;61141;46.204;19.774;2023-04-27T05:43:26;100764.59;;;8.55;61.55
72961;BME280;61141;46.204;19.774;2023-04-27T05:46:28;100777.56;;;8.34;60.98
72961;BME280;61141;46.204;19.774;2023-04-27T05:49:32;100761.41;;;8.81;61.70
72961;BME280;61141;46.204;19.774;2023-04-27T05:52:35;100772.25;;;8.77;60.24
72961;BME280;61141;46.204;19.774;2023-04-27T05:55:38;100775.75;;;9.33;59.77
72961;BME280;61141;46.204;19.774;2023-04-27T05:58:41;100782.50;;;9.08;58.72
72961;BME280;61141;46.204;19.774;2023-04-27T06:01:44;100765.59;;;9.77;58.58
72961;BME280;61141;46.204;19.774;2023-04-27T06:04:47;100781.47;;;9.72;57.79
72961;BME280;61141;46.204;19.774;2023-04-27T06:07:50;100778.09;;;10.10;57.37
72961;BME280;61141;46.204;19.774;2023-04-27T06:11:00;100783.69;;;10.48;55.67
72961;BME280;61141;46.204;19.774;2023-04-27T06:14:02;100786.22;;;10.06;53.53
72961;BME280;61141;46.204;19.774;2023-04-27T06:17:05;100789.59;;;10.15;54.77
72961;BME280;61141;46.204;19.774;2023-04-27T06:20:08;100786.37;;;10.29;53.59
72961;BME280;61141;46.204;19.774;2023-04-27T06:23:12;100799.28;;;10.28;53.26
72961;BME280;61141;46.204;19.774;2023-04-27T06:26:14;100793.91;;;10.32;51.13
72961;BME280;61141;46.204;19.774;2023-04-27T06:29:17;100797.53;;;10.20;52.12
72961;BME280;61141;46.204;19.774;2023-04-27T06:32:20;100802.97;;;10.36;51.17
72961;BME280;61141;46.204;19.774;2023-04-27T06:35:23;100800.88;;;10.14;51.70
72961;BME280;61141;46.204;19.774;2023-04-27T06:38:26;100791.59;;;10.69;50.34
72961;BME280;61141;46.204;19.774;2023-04-27T06:41:29;100795.78;;;10.47;51.55
72961;BME280;61141;46.204;19.774;2023-04-27T06:44:32;100793.34;;;10.77;51.03
72961;BME280;61141;46.204;19.774;2023-04-27T06:47:35;100794.19;;;11.00;50.31
72961;BME280;61141;46.204;19.774;2023-04-27T06:50:38;100797.72;;;11.19;48.48
72961;BME280;61141;46.204;19.774;2023-04-27T06:53:41;100796.59;;;11.01;47.84
72961;BME280;61141;46.204;19.774;2023-04-27T06:56:44;100798.88;;;10.80;47.00
72961;BME280;61141;46.204;19.774;2023-04-27T06:59:48;100813.09;;;10.86;46.74
72961;BME280;61141;46.204;19.774;2023-04-27T07:02:50;100809.56;;;10.85;46.47
72961;BME280;61141;46.204;19.774;2023-04-27T07:05:54;100810.91;;;10.76;47.33
72961;BME280;61141;46.204;19.774;2023-04-27T07:08:58;100808.34;;;11.21;46.81
72961;BME280;61141;46.204;19.774;2023-04-27T07:12:01;100800.97;;;10.87;46.93
72961;BME280;61141;46.204;19.774;2023-04-27T07:15:05;100824.94;;;11.09;45.77
72961;BME280;61141;46.204;19.774;2023-04-27T07:18:09;100816.91;;;11.39;45.83
72961;BME280;61141;46.204;19.774;2023-04-27T07:21:13;100815.31;;;11.18;46.28
72961;BME280;61141;46.204;19.774;2023-04-27T07:24:16;100814.88;;;10.78;46.06
72961;BME280;61141;46.204;19.774;2023-04-27T07:27:19;100809.84;;;11.18;47.20
72961;BME280;61141;46.204;19.774;2023-04-27T07:30:22;100814.56;;;11.18;46.06
72961;BME280;61141;46.204;19.774;2023-04-27T07:33:26;100820.97;;;11.26;45.69
72961;BME280;61141;46.204;19.774;2023-04-27T07:36:29;100811.78;;;11.37;45.23
72961;BME280;61141;46.204;19.774;2023-04-27T07:39:33;100818.44;;;11.36;45.19
72961;BME280;61141;46.204;19.774;2023-04-27T07:42:36;100823.97;;;11.59;45.32
72961;BME280;61141;46.204;19.774;2023-04-27T07:45:41;100811.19;;;11.47;45.54
72961;BME280;61141;46.204;19.774;2023-04-27T07:48:44;100822.94;;;11.67;46.31
72961;BME280;61141;46.204;19.774;2023-04-27T07:51:47;100830.63;;;11.39;46.08
72961;BME280;61141;46.204;19.774;2023-04-27T07:54:50;100824.84;;;11.44;46.62
72961;BME280;61141;46.204;19.774;2023-04-27T07:57:54;100835.75;;;11.40;45.94
72961;BME280;61141;46.204;19.774;2023-04-27T08:00:58;100831.00;;;11.37;43.76
72961;BME280;61141;46.204;19.774;2023-04-27T08:04:01;100830.09;;;11.71;45.29
72961;BME280;61141;46.204;19.774;2023-04-27T08:07:04;100830.59;;;11.77;44.65
72961;BME280;61141;46.204;19.774;2023-04-27T08:10:08;100828.53;;;11.70;43.39
72961;BME280;61141;46.204;19.774;2023-04-27T08:13:11;100831.62;;;12.14;43.35
72961;BME280;61141;46.204;19.774;2023-04-27T08:16:14;100834.91;;;11.78;43.51
72961;BME280;61141;46.204;19.774;2023-04-27T08:19:17;100830.09;;;11.94;43.60
72961;BME280;61141;46.204;19.774;2023-04-27T08:22:20;100830.25;;;12.27;43.34
72961;BME280;61141;46.204;19.774;2023-04-27T08:25:23;100834.75;;;11.90;42.63
72961;BME280;61141;46.204;19.774;2023-04-27T08:28:27;100833.09;;;12.34;43.48
72961;BME280;61141;46.204;19.774;2023-04-27T08:31:30;100833.69;;;12.21;43.50
72961;BME280;61141;46.204;19.774;2023-04-27T08:34:33;100822.09;;;12.87;43.84
72961;BME280;61141;46.204;19.774;2023-04-27T08:38:00;100836.63;;;12.31;42.37
72961;BME280;61141;46.204;19.774;2023-04-27T08:41:06;100845.78;;;12.16;42.70
72961;BME280;61141;46.204;19.774;2023-04-27T08:44:22;100848.44;;;12.35;42.53
72961;BME280;61141;46.204;19.774;2023-04-27T08:47:26;100843.66;;;12.85;41.29
72961;BME280;61141;46.204;19.774;2023-04-27T08:50:49;100848.88;;;13.53;40.85
72961;BME280;61141;46.204;19.774;2023-04-27T08:53:54;100843.37;;;13.93;39.79
72961;BME280;61141;46.204;19.774;2023-04-27T08:56:57;100830.84;;;13.22;39.88
72961;BME280;61141;46.204;19.774;2023-04-27T09:00:00;100833.53;;;13.89;39.77
72961;BME280;61141;46.204;19.774;2023-04-27T09:03:22;100802.97;;;13.27;39.25
72961;BME280;61141;46.204;19.774;2023-04-27T09:06:34;100825.31;;;12.36;40.23
72961;BME280;61141;46.204;19.774;2023-04-27T09:09:37;100827.06;;;12.48;40.57
72961;BME280;61141;46.204;19.774;2023-04-27T09:12:40;100823.41;;;12.41;40.95
72961;BME280;61141;46.204;19.774;2023-04-27T09:15:44;100822.47;;;13.12;40.92
72961;BME280;61141;46.204;19.774;2023-04-27T09:18:51;100816.91;;;13.41;40.63
72961;BME280;61141;46.204;19.774;2023-04-27T09:22:08;100802.75;;;13.80;39.70
72961;BME280;61141;46.204;19.774;2023-04-27T09:25:26;100815.88;;;13.97;36.77
72961;BME280;61141;46.204;19.774;2023-04-27T09:28:29;100821.34;;;13.93;36.89
72961;BME280;61141;46.204;19.774;2023-04-27T09:31:34;100805.34;;;13.66;37.11
72961;BME280;61141;46.204;19.774;2023-04-27T09:34:38;100817.97;;;14.10;36.49
72961;BME280;61141;46.204;19.774;2023-04-27T09:37:43;100808.12;;;14.67;35.74
72961;BME280;61141;46.204;19.774;2023-04-27T09:40:47;100803.44;;;14.17;37.80
72961;BME280;61141;46.204;19.774;2023-04-27T09:43:51;100799.81;;;14.06;36.07
72961;BME280;61141;46.204;19.774;2023-04-27T09:46:59;100808.16;;;13.32;37.61
72961;BME280;61141;46.204;19.774;2023-04-27T09:50:04;100806.72;;;13.45;38.58
72961;BME280;61141;46.204;19.774;2023-04-27T09:53:12;100804.47;;;13.21;37.45
72961;BME280;61141;46.204;19.774;2023-04-27T09:56:39;100804.94;;;14.07;37.39
72961;BME280;61141;46.204;19.774;2023-04-27T10:03:25;100794.28;;;14.53;35.05
72961;BME280;61141;46.204;19.774;2023-04-27T10:09:40;100790.66;;;13.91;35.76
72961;BME280;61141;46.204;19.774;2023-04-27T10:12:54;100785.66;;;14.62;35.65
72961;BME280;61141;46.204;19.774;2023-04-27T10:16:13;100774.81;;;13.81;35.86
72961;BME280;61141;46.204;19.774;2023-04-27T10:19:19;100776.47;;;15.26;35.82
72961;BME280;61141;46.204;19.774;2023-04-27T10:22:23;100778.69;;;14.89;34.21
72961;BME280;61141;46.204;19.774;2023-04-27T10:25:47;100771.00;;;15.41;33.95
72961;BME280;61141;46.204;19.774;2023-04-27T10:28:59;100767.75;;;15.07;34.35
72961;BME280;61141;46.204;19.774;2023-04-27T10:32:08;100774.50;;;14.44;34.97
72961;BME280;61141;46.204;19.774;2023-04-27T10:35:12;100768.78;;;14.78;34.80
72961;BME280;61141;46.204;19.774;2023-04-27T10:38:20;100764.56;;;14.29;35.02
72961;BME280;61141;46.204;19.774;2023-04-27T10:41:33;100770.47;;;14.28;35.32
72961;BME280;61141;46.204;19.774;2023-04-27T10:44:37;100759.78;;;14.88;34.74
72961;BME280;61141;46.204;19.774;2023-04-27T10:47:44;100752.81;;;15.18;33.96
72961;BME280;61141;46.204;19.774;2023-04-27T10:50:52;100764.53;;;14.91;34.73
72961;BME280;61141;46.204;19.774;2023-04-27T10:53:56;100765.13;;;14.52;34.86
72961;BME280;61141;46.204;19.774;2023-04-27T10:57:09;100765.87;;;13.95;36.21
72961;BME280;61141;46.204;19.774;2023-04-27T11:00:14;100766.63;;;13.92;35.26
72961;BME280;61141;46.204;19.774;2023-04-27T11:03:21;100765.69;;;14.21;35.50
72961;BME280;61141;46.204;19.774;2023-04-27T11:06:27;100765.78;;;15.07;34.20
72961;BME280;61141;46.204;19.774;2023-04-27T11:09:31;100764.75;;;15.54;32.89
72961;BME280;61141;46.204;19.774;2023-04-27T11:12:35;100765.13;;;16.34;31.64
72961;BME280;61141;46.204;19.774;2023-04-27T11:15:44;100761.53;;;16.40;31.68
72961;BME280;61141;46.204;19.774;2023-04-27T11:18:48;100762.66;;;16.78;30.74
72961;BME280;61141;46.204;19.774;2023-04-27T11:21:50;100764.34;;;15.49;32.24
72961;BME280;61141;46.204;19.774;2023-04-27T11:24:54;100778.84;;;15.28;31.68
72961;BME280;61141;46.204;19.774;2023-04-27T11:27:57;100766.72;;;15.57;32.97
72961;BME280;61141;46.204;19.774;2023-04-27T11:31:01;100769.47;;;15.54;32.18
72961;BME280;61141;46.204;19.774;2023-04-27T11:34:06;100760.81;;;16.12;32.25
72961;BME280;61141;46.204;19.774;2023-04-27T11:37:22;100765.50;;;16.36;32.27
72961;BME280;61141;46.204;19.774;2023-04-27T11:40:26;100759.37;;;17.04;32.69
72961;BME280;61141;46.204;19.774;2023-04-27T11:43:31;100760.53;;;17.14;31.91
72961;BME280;61141;46.204;19.774;2023-04-27T11:46:35;100760.72;;;16.51;31.68
72961;BME280;61141;46.204;19.774;2023-04-27T11:49:45;100761.97;;;16.11;32.25
72961;BME280;61141;46.204;19.774;2023-04-27T11:52:48;100757.91;;;15.16;34.11
72961;BME280;61141;46.204;19.774;2023-04-27T11:55:51;100762.66;;;15.30;33.42
72961;BME280;61141;46.204;19.774;2023-04-27T11:58:54;100764.31;;;14.48;33.76
72961;BME280;61141;46.204;19.774;2023-04-27T12:01:57;100758.00;;;15.55;33.33
72961;BME280;61141;46.204;19.774;2023-04-27T12:05:00;100755.19;;;15.23;32.32
72961;BME280;61141;46.204;19.774;2023-04-27T12:08:03;100766.22;;;15.30;31.69
72961;BME280;61141;46.204;19.774;2023-04-27T12:11:06;100756.06;;;16.23;31.77
72961;BME280;61141;46.204;19.774;2023-04-27T12:14:09;100749.28;;;16.41;32.63
72961;BME280;61141;46.204;19.774;2023-04-27T12:17:12;100764.34;;;16.23;31.23
72961;BME280;61141;46.204;19.774;2023-04-27T12:20:15;100748.16;;;16.18;31.16
72961;BME280;61141;46.204;19.774;2023-04-27T12:23:18;100737.88;;;16.08;31.28
72961;BME280;61141;46.204;19.774;2023-04-27T12:26:21;100750.53;;;15.70;31.96
72961;BME280;61141;46.204;19.774;2023-04-27T12:29:24;100748.94;;;16.11;31.77
72961;BME280;61141;46.204;19.774;2023-04-27T12:32:27;100746.13;;;16.50;31.47
72961;BME280;61141;46.204;19.774;2023-04-27T12:35:30;100746.97;;;16.26;32.23
72961;BME280;61141;46.204;19.774;2023-04-27T12:38:33;100742.25;;;15.70;32.48
72961;BME280;61141;46.204;19.774;2023-04-27T12:41:36;100741.06;;;15.57;33.86
72961;BME280;61141;46.204;19.774;2023-04-27T12:44:39;100743.84;;;15.81;32.80
72961;BME280;61141;46.204;19.774;2023-04-27T12:47:43;100736.72;;;15.80;31.92
72961;BME280;61141;46.204;19.774;2023-04-27T12:51:03;100743.41;;;15.48;32.88
72961;BME280;61141;46.204;19.774;2023-04-27T12:54:09;100740.22;;;15.46;32.54
72961;BME280;61141;46.204;19.774;2023-04-27T12:57:12;100746.97;;;16.05;32.72
72961;BME280;61141;46.204;19.774;2023-04-27T13:00:16;100739.09;;;16.07;32.35
72961;BME280;61141;46.204;19.774;2023-04-27T13:03:18;100748.53;;;16.13;31.57
72961;BME280;61141;46.204;19.774;2023-04-27T13:06:23;100736.25;;;15.25;32.63
72961;BME280;61141;46.204;19.774;2023-04-27T13:09:26;100742.25;;;15.59;32.02
72961;BME280;61141;46.204;19.774;2023-04-27T13:12:30;100733.19;;;15.62;31.98
72961;BME280;61141;46.204;19.774;2023-04-27T13:15:34;100748.81;;;15.02;33.85
72961;BME280;61141;46.204;19.774;2023-04-27T13:18:38;100741.84;;;15.54;34.33
72961;BME280;61141;46.204;19.774;2023-04-27T13:21:42;100739.09;;;15.64;34.33
72961;BME280;61141;46.204;19.774;2023-04-27T13:24:45;100744.94;;;15.24;33.19
72961;BME280;61141;46.204;19.774;2023-04-27T13:27:48;100740.28;;;15.95;32.71
72961;BME280;61141;46.204;19.774;2023-04-27T13:30:52;100735.94;;;15.76;33.49
72961;BME280;61141;46.204;19.774;2023-04-27T13:33:55;100735.50;;;16.24;32.62
72961;BME280;61141;46.204;19.774;2023-04-27T13:36:58;100737.03;;;16.46;31.76
72961;BME280;61141;46.204;19.774;2023-04-27T13:40:00;100739.31;;;16.86;31.72
72961;BME280;61141;46.204;19.774;2023-04-27T13:43:03;100740.94;;;16.70;31.97
72961;BME280;61141;46.204;19.774;2023-04-27T13:46:06;100740.53;;;16.78;31.30
72961;BME280;61141;46.204;19.774;2023-04-27T13:49:09;100743.81;;;15.60;32.91
72961;BME280;61141;46.204;19.774;2023-04-27T13:52:12;100741.72;;;15.11;33.79
72961;BME280;61141;46.204;19.774;2023-04-27T13:55:15;100743.03;;;15.77;33.72
72961;BME280;61141;46.204;19.774;2023-04-27T13:58:18;100733.94;;;15.52;33.00
72961;BME280;61141;46.204;19.774;2023-04-27T14:01:21;100733.97;;;15.66;33.63
72961;BME280;61141;46.204;19.774;2023-04-27T14:04:24;100733.16;;;15.69;33.10
72961;BME280;61141;46.204;19.774;2023-04-27T14:07:27;100728.28;;;15.03;33.57
72961;BME280;61141;46.204;19.774;2023-04-27T14:10:32;100739.34;;;15.06;33.74
72961;BME280;61141;46.204;19.774;2023-04-27T14:13:37;100734.72;;;15.46;33.55
72961;BME280;61141;46.204;19.774;2023-04-27T14:16:40;100732.41;;;15.76;34.22
72961;BME280;61141;46.204;19.774;2023-04-27T14:19:43;100737.50;;;16.23;32.88
72961;BME280;61141;46.204;19.774;2023-04-27T14:22:46;100726.41;;;16.34;32.64
72961;BME280;61141;46.204;19.774;2023-04-27T14:25:49;100732.78;;;17.25;31.42
72961;BME280;61141;46.204;19.774;2023-04-27T14:28:52;100740.03;;;16.94;31.10
72961;BME280;61141;46.204;19.774;2023-04-27T14:32:00;100729.81;;;16.80;30.89
72961;BME280;61141;46.204;19.774;2023-04-27T14:35:03;100730.31;;;16.51;30.90
72961;BME280;61141;46.204;19.774;2023-04-27T14:38:06;100734.56;;;16.76;30.27
72961;BME280;61141;46.204;19.774;2023-04-27T14:41:10;100739.13;;;17.18;30.70
72961;BME280;61141;46.204;19.774;2023-04-27T14:44:13;100737.88;;;17.26;29.71
72961;BME280;61141;46.204;19.774;2023-04-27T14:47:18;100746.47;;;16.73;29.72
72961;BME280;61141;46.204;19.774;2023-04-27T14:50:21;100754.44;;;17.95;28.76
72961;BME280;61141;46.204;19.774;2023-04-27T14:53:24;100759.72;;;17.79;29.42
72961;BME280;61141;46.204;19.774;2023-04-27T14:56:27;100758.28;;;16.81;29.00
72961;BME280;61141;46.204;19.774;2023-04-27T14:59:30;100761.84;;;17.61;28.71
72961;BME280;61141;46.204;19.774;2023-04-27T15:02:36;100758.56;;;17.04;29.70
72961;BME280;61141;46.204;19.774;2023-04-27T15:05:40;100764.09;;;17.11;29.74
72961;BME280;61141;46.204;19.774;2023-04-27T15:08:44;100758.06;;;17.89;28.90
72961;BME280;61141;46.204;19.774;2023-04-27T15:11:47;100763.38;;;17.69;29.72
72961;BME280;61141;46.204;19.774;2023-04-27T15:14:50;100767.16;;;17.31;30.33
72961;BME280;61141;46.204;19.774;2023-04-27T15:17:54;100761.69;;;17.20;29.94
72961;BME280;61141;46.204;19.774;2023-04-27T15:20:58;100761.28;;;17.18;30.49
72961;BME280;61141;46.204;19.774;2023-04-27T15:24:01;100763.56;;;17.34;30.03
72961;BME280;61141;46.204;19.774;2023-04-27T15:27:04;100760.72;;;16.61;30.63
72961;BME280;61141;46.204;19.774;2023-04-27T15:30:10;100763.31;;;17.11;30.55
72961;BME280;61141;46.204;19.774;2023-04-27T15:33:13;100761.84;;;17.61;29.98
72961;BME280;61141;46.204;19.774;2023-04-27T15:36:17;100766.50;;;17.71;30.21
72961;BME280;61141;46.204;19.774;2023-04-27T15:39:19;100768.38;;;18.29;29.49
72961;BME280;61141;46.204;19.774;2023-04-27T15:42:23;100759.06;;;17.61;30.60
72961;BME280;61141;46.204;19.774;2023-04-27T15:45:26;100756.25;;;18.12;29.74
72961;BME280;61141;46.204;19.774;2023-04-27T15:48:30;100766.88;;;17.77;29.27
72961;BME280;61141;46.204;19.774;2023-04-27T15:51:32;100754.75;;;17.49;30.74
72961;BME280;61141;46.204;19.774;2023-04-27T15:54:35;100758.31;;;16.77;31.39
72961;BME280;61141;46.204;19.774;2023-04-27T15:57:38;100761.59;;;15.95;31.88
72961;BME280;61141;46.204;19.774;2023-04-27T16:00:41;100763.69;;;17.13;31.28